Terminal Aerodrome Forecast
Issued by NWS

Home | Current Version | Previous Version | Text Only | Print | Product List | Glossary On
Versions: 1 2 3 4 5 6 7 8 9 10 11 12 13 14 15
000
FTUS43 KIWX 262000 AAA
TAFSBN
TAF AMD
KSBN 262051Z 2621/2718 19016G24KT P6SM BKN040
      TEMPO 2621/2623 -SHRA
     FM270200 21012KT P6SM BKN070
     FM271600 26016G25KT P6SM BKN040=

USA.gov is the U.S. government's official web portal to all federal, state and local government web resources and services.